Check out our new BloomSky Weather System.

Active alerts


No alerts


Thunder radar  blitzortung!


Rain radar more information rain snow radar


Visit our other weather sites:

Template documentation
and downloads

And another site



Weather Underground History page Text

Daily Summary for June 22, 2017 Units:  English    Metric   Both
« Previous Day
Next Day »
Daily Weekly Monthly Yearly Custom
  High: Low: Average:
Temperature: 90.3 °F 75.2 °F 81 °F
Dew Point: 79.0 °F 73.9 °F 76.1 °F
Humidity: 97 % 68 % 86 %
Wind Speed: 9.0 mph 0.0 mph 3.1 mph
Wind Gust: 14.0 mph - -
Wind:- - WSW
Pressure: 29.73 in 29.55 in -
Precipitation: 0.14 in    
Historical Graphs
 
 
Tabular Data for June 22, 2017
Time Temperature Dew Point Pressure Wind Wind Speed Wind Gust Humidity Rainfall Rate (Hourly)
00:02 76.1 °F 74.3 °F 29.61 in WNW 2.0 mph 10.0 mph 94 % 0.00 in
00:07 75.9 °F 74.1 °F 29.60 in NW 7.0 mph 9.0 mph 94 % 0.00 in
00:12 75.9 °F 74.1 °F 29.60 in NNW 4.0 mph 10.0 mph 94 % 0.00 in
00:17 75.7 °F 74.1 °F 29.60 in WSW 4.0 mph 10.0 mph 95 % 0.00 in
00:22 75.7 °F 74.1 °F 29.60 in NW 7.0 mph 12.0 mph 95 % 0.00 in
00:27 75.7 °F 74.1 °F 29.60 in NNW 4.0 mph 12.0 mph 95 % 0.00 in
00:32 75.7 °F 74.1 °F 29.60 in NW 6.0 mph 12.0 mph 95 % 0.01 in
00:37 75.6 °F 73.9 °F 29.59 in NNW 3.0 mph 9.0 mph 95 % 0.02 in
00:42 75.6 °F 73.9 °F 29.59 in NW 4.0 mph 8.0 mph 95 % 0.02 in
00:47 75.6 °F 74.3 °F 29.59 in North 3.0 mph 8.0 mph 96 % 0.03 in
00:52 75.6 °F 74.3 °F 29.59 in NNW 3.0 mph 9.0 mph 96 % 0.03 in
00:57 75.6 °F 74.3 °F 29.59 in NW 2.0 mph 10.0 mph 96 % 0.03 in
01:02 75.6 °F 74.3 °F 29.59 in NNW 6.0 mph 10.0 mph 96 % 0.03 in
01:07 75.4 °F 74.1 °F 29.59 in NW 4.0 mph 10.0 mph 96 % 0.03 in
01:12 75.4 °F 74.1 °F 29.59 in NW 3.0 mph 10.0 mph 96 % 0.04 in
01:17 75.4 °F 74.1 °F 29.59 in West 2.0 mph 10.0 mph 96 % 0.05 in
01:22 75.4 °F 74.1 °F 29.59 in WNW 3.0 mph 9.0 mph 96 % 0.05 in
01:27 75.4 °F 74.1 °F 29.59 in NW 7.0 mph 9.0 mph 96 % 0.05 in
01:32 75.4 °F 74.1 °F 29.58 in WNW 7.0 mph 9.0 mph 96 % 0.05 in
01:37 75.4 °F 74.5 °F 29.58 in NNW 3.0 mph 11.0 mph 97 % 0.05 in
01:42 75.4 °F 74.5 °F 29.58 in NNW 3.0 mph 11.0 mph 97 % 0.07 in
01:47 75.2 °F 74.3 °F 29.57 in NW 2.0 mph 11.0 mph 97 % 0.06 in
01:52 75.4 °F 74.5 °F 29.57 in NW 8.0 mph 11.0 mph 97 % 0.07 in
01:57 75.4 °F 74.5 °F 29.57 in NW 4.0 mph 12.0 mph 97 % 0.07 in
02:03 75.4 °F 74.5 °F 29.57 in NW 8.0 mph 12.0 mph 97 % 0.07 in
02:08 75.4 °F 74.5 °F 29.57 in NNW 6.0 mph 12.0 mph 97 % 0.08 in
02:13 75.4 °F 74.5 °F 29.57 in NNW 5.0 mph 13.0 mph 97 % 0.07 in
02:18 75.4 °F 74.5 °F 29.57 in NNW 5.0 mph 13.0 mph 97 % 0.07 in
02:23 75.4 °F 74.5 °F 29.57 in NW 6.0 mph 13.0 mph 97 % 0.07 in
02:28 75.4 °F 74.5 °F 29.57 in NNW 5.0 mph 14.0 mph 97 % 0.06 in
02:33 75.4 °F 74.5 °F 29.57 in WNW 5.0 mph 14.0 mph 97 % 0.06 in
02:38 75.4 °F 74.5 °F 29.57 in NW 6.0 mph 14.0 mph 97 % 0.05 in
02:43 75.4 °F 74.5 °F 29.56 in NNW 7.0 mph 11.0 mph 97 % 0.03 in
02:48 75.4 °F 74.5 °F 29.56 in North 5.0 mph 14.0 mph 97 % 0.03 in
02:53 75.4 °F 74.5 °F 29.56 in NW 4.0 mph 14.0 mph 97 % 0.02 in
02:58 75.4 °F 74.5 °F 29.56 in NNW 6.0 mph 14.0 mph 97 % 0.02 in
03:03 75.4 °F 74.5 °F 29.55 in WNW 6.0 mph 10.0 mph 97 % 0.02 in
03:08 75.2 °F 74.3 °F 29.55 in NW 3.0 mph 10.0 mph 97 % 0.01 in
03:13 75.2 °F 74.3 °F 29.55 in WNW 3.0 mph 10.0 mph 97 % 0.01 in
03:16 75.2 °F 74.3 °F 29.55 in NW 5.0 mph 11.0 mph 97 % 0.00 in
03:21 75.2 °F 74.3 °F 29.55 in North 6.0 mph 11.0 mph 97 % 0.00 in
03:26 75.4 °F 74.5 °F 29.55 in NW 4.0 mph 11.0 mph 97 % 0.00 in
03:31 75.4 °F 74.5 °F 29.55 in WNW 7.0 mph 10.0 mph 97 % 0.00 in
03:32 75.4 °F 74.5 °F 29.55 in NNW 3.0 mph 10.0 mph 97 % 0.00 in
03:37 75.4 °F 74.5 °F 29.55 in WNW 7.0 mph 10.0 mph 97 % 0.00 in
03:42 75.4 °F 74.5 °F 29.55 in NW 3.0 mph 9.0 mph 97 % 0.00 in
03:47 75.4 °F 74.5 °F 29.55 in WNW 5.0 mph 9.0 mph 97 % 0.00 in
03:52 75.4 °F 74.5 °F 29.55 in ENE 6.0 mph 9.0 mph 97 % 0.00 in
03:58 75.4 °F 74.5 °F 29.55 in WNW 5.0 mph 11.0 mph 97 % 0.00 in
04:03 75.4 °F 74.5 °F 29.55 in WNW 5.0 mph 11.0 mph 97 % 0.00 in
04:08 75.6 °F 74.7 °F 29.55 in NW 5.0 mph 11.0 mph 97 % 0.00 in
04:13 75.6 °F 74.7 °F 29.55 in NW 5.0 mph 11.0 mph 97 % 0.00 in
04:18 75.6 °F 74.7 °F 29.55 in NW 6.0 mph 10.0 mph 97 % 0.00 in
04:23 75.6 °F 74.7 °F 29.55 in NW 7.0 mph 9.0 mph 97 % 0.00 in
04:28 75.6 °F 74.7 °F 29.55 in NW 3.0 mph 8.0 mph 97 % 0.00 in
04:33 75.6 °F 74.7 °F 29.55 in NNW 3.0 mph 8.0 mph 97 % 0.00 in
04:38 75.6 °F 74.7 °F 29.55 in NW 4.0 mph 8.0 mph 97 % 0.00 in
04:43 75.7 °F 74.8 °F 29.55 in NW 2.0 mph 8.0 mph 97 % 0.00 in
04:48 75.7 °F 74.8 °F 29.55 in NW 2.0 mph 8.0 mph 97 % 0.00 in
04:53 75.6 °F 74.7 °F 29.55 in NW 3.0 mph 7.0 mph 97 % 0.00 in
04:58 75.6 °F 74.7 °F 29.55 in Calm   6.0 mph 97 % 0.00 in
05:03 75.6 °F 74.7 °F 29.55 in West 4.0 mph 6.0 mph 97 % 0.00 in
05:08 75.6 °F 74.7 °F 29.55 in NNW 4.0 mph 6.0 mph 97 % 0.00 in
05:13 75.6 °F 74.7 °F 29.55 in NW 3.0 mph 6.0 mph 97 % 0.00 in
05:18 75.6 °F 74.7 °F 29.55 in WSW 1.0 mph 6.0 mph 97 % 0.00 in
05:23 75.6 °F 74.7 °F 29.55 in NNW 4.0 mph 6.0 mph 97 % 0.00 in
05:28 75.6 °F 74.7 °F 29.55 in NNW 5.0 mph 6.0 mph 97 % 0.00 in
05:33 75.6 °F 74.7 °F 29.55 in North 1.0 mph 5.0 mph 97 % 0.00 in
05:38 75.4 °F 74.5 °F 29.55 in NW 2.0 mph 5.0 mph 97 % 0.00 in
05:43 75.4 °F 74.5 °F 29.55 in Calm   6.0 mph 97 % 0.00 in
05:48 75.4 °F 74.5 °F 29.55 in NW 1.0 mph 6.0 mph 97 % 0.00 in
05:53 75.4 °F 74.5 °F 29.55 in Calm   6.0 mph 97 % 0.00 in
05:58 75.4 °F 74.5 °F 29.55 in Calm   6.0 mph 97 % 0.00 in
06:03 75.4 °F 74.5 °F 29.55 in WSW 1.0 mph 6.0 mph 97 % 0.00 in
06:08 75.4 °F 74.5 °F 29.56 in West 4.0 mph 6.0 mph 97 % 0.00 in
06:13 75.2 °F 74.3 °F 29.56 in NE 2.0 mph 6.0 mph 97 % 0.00 in
06:18 75.2 °F 74.3 °F 29.56 in WNW 3.0 mph 6.0 mph 97 % 0.00 in
06:23 75.2 °F 74.3 °F 29.56 in Calm   6.0 mph 97 % 0.00 in
06:28 75.4 °F 74.5 °F 29.56 in WNW 5.0 mph 5.0 mph 97 % 0.00 in
06:33 75.4 °F 74.5 °F 29.56 in Calm   7.0 mph 97 % 0.00 in
06:38 75.4 °F 74.5 °F 29.57 in WNW 1.0 mph 7.0 mph 97 % 0.00 in
06:43 75.4 °F 74.5 °F 29.57 in NNW 1.0 mph 7.0 mph 97 % 0.00 in
06:48 75.4 °F 74.5 °F 29.57 in SW 3.0 mph 6.0 mph 97 % 0.00 in
06:53 75.4 °F 74.5 °F 29.57 in NNW 1.0 mph 7.0 mph 97 % 0.00 in
06:58 75.4 °F 74.5 °F 29.57 in NNE 2.0 mph 7.0 mph 97 % 0.00 in
07:04 75.4 °F 74.5 °F 29.58 in WNW 3.0 mph 7.0 mph 97 % 0.00 in
07:09 75.6 °F 74.7 °F 29.58 in SW 1.0 mph 5.0 mph 97 % 0.00 in
07:13 75.6 °F 74.7 °F 29.59 in West 3.0 mph 6.0 mph 97 % 0.01 in
07:18 75.6 °F 74.7 °F 29.59 in NNE 2.0 mph 6.0 mph 97 % 0.01 in
07:23 75.6 °F 74.7 °F 29.59 in Calm   6.0 mph 97 % 0.01 in
07:28 75.6 °F 74.7 °F 29.59 in NW 4.0 mph 7.0 mph 97 % 0.02 in
07:34 75.6 °F 74.7 °F 29.60 in West 1.0 mph 7.0 mph 97 % 0.02 in
07:39 75.6 °F 74.7 °F 29.60 in Calm   7.0 mph 97 % 0.02 in
07:44 75.6 °F 74.7 °F 29.60 in Calm   6.0 mph 97 % 0.02 in
07:49 75.6 °F 74.7 °F 29.60 in West 4.0 mph 6.0 mph 97 % 0.02 in
07:54 75.6 °F 74.7 °F 29.61 in NW 5.0 mph 7.0 mph 97 % 0.02 in
07:59 75.6 °F 74.7 °F 29.61 in North 2.0 mph 7.0 mph 97 % 0.02 in
08:04 75.6 °F 74.7 °F 29.61 in West 2.0 mph 7.0 mph 97 % 0.02 in
08:09 75.6 °F 74.7 °F 29.61 in NW 2.0 mph 7.0 mph 97 % 0.02 in
08:14 75.7 °F 74.8 °F 29.61 in West 1.0 mph 6.0 mph 97 % 0.01 in
08:19 75.7 °F 74.8 °F 29.61 in WSW 1.0 mph 6.0 mph 97 % 0.01 in
08:24 75.7 °F 74.8 °F 29.61 in West 3.0 mph 6.0 mph 97 % 0.01 in
08:29 75.9 °F 75.0 °F 29.62 in NNW 2.0 mph 5.0 mph 97 % 0.00 in
08:34 75.9 °F 75.0 °F 29.62 in WNW 1.0 mph 6.0 mph 97 % 0.00 in
08:39 75.9 °F 75.0 °F 29.62 in Calm   6.0 mph 97 % 0.00 in
08:44 76.1 °F 75.2 °F 29.62 in SE 1.0 mph 6.0 mph 97 % 0.00 in
08:49 76.3 °F 75.4 °F 29.62 in West 1.0 mph 6.0 mph 97 % 0.00 in
08:54 76.3 °F 75.4 °F 29.63 in Calm   3.0 mph 97 % 0.00 in
08:59 76.3 °F 75.4 °F 29.63 in Calm   3.0 mph 97 % 0.00 in
09:04 76.3 °F 75.4 °F 29.63 in South 1.0 mph 3.0 mph 97 % 0.00 in
09:09 76.3 °F 75.4 °F 29.63 in WSW 2.0 mph 3.0 mph 97 % 0.00 in
09:14 76.3 °F 75.0 °F 29.63 in Calm   5.0 mph 96 % 0.00 in
09:19 76.3 °F 75.4 °F 29.64 in SW 1.0 mph 5.0 mph 97 % 0.00 in
09:24 76.3 °F 75.0 °F 29.64 in Calm   5.0 mph 96 % 0.00 in
09:29 76.3 °F 75.0 °F 29.64 in SW 5.0 mph 5.0 mph 96 % 0.00 in
09:34 76.3 °F 75.0 °F 29.64 in SSW 1.0 mph 5.0 mph 96 % 0.00 in
09:39 76.5 °F 75.2 °F 29.64 in WSW 2.0 mph 5.0 mph 96 % 0.00 in
09:44 76.5 °F 75.2 °F 29.64 in NW 1.0 mph 5.0 mph 96 % 0.00 in
09:49 76.6 °F 75.4 °F 29.64 in NNW 2.0 mph 5.0 mph 96 % 0.00 in
09:54 77.0 °F 75.7 °F 29.64 in WNW 3.0 mph 5.0 mph 96 % 0.00 in
09:59 77.2 °F 75.9 °F 29.64 in WSW 4.0 mph 4.0 mph 96 % 0.00 in
10:04 77.4 °F 76.1 °F 29.64 in SSW 3.0 mph 5.0 mph 96 % 0.00 in
10:09 77.4 °F 75.7 °F 29.64 in Calm   5.0 mph 95 % 0.00 in
10:14 77.4 °F 75.7 °F 29.65 in Calm   5.0 mph 95 % 0.00 in
10:19 77.5 °F 75.9 °F 29.65 in WNW 2.0 mph 5.0 mph 95 % 0.00 in
10:24 77.7 °F 76.1 °F 29.64 in SE 1.0 mph 5.0 mph 95 % 0.00 in
10:29 78.1 °F 76.5 °F 29.64 in WSW 1.0 mph 5.0 mph 95 % 0.00 in
10:34 78.3 °F 76.5 °F 29.64 in SW 2.0 mph 5.0 mph 94 % 0.00 in
10:39 78.8 °F 77.0 °F 29.64 in ESE 3.0 mph 8.0 mph 94 % 0.00 in
10:44 79.0 °F 76.8 °F 29.65 in NW 1.0 mph 8.0 mph 93 % 0.00 in
10:49 79.2 °F 76.6 °F 29.65 in SW 3.0 mph 8.0 mph 92 % 0.00 in
10:54 79.3 °F 76.8 °F 29.65 in SSW 4.0 mph 7.0 mph 92 % 0.00 in
10:59 79.5 °F 76.6 °F 29.65 in Calm   7.0 mph 91 % 0.00 in
11:04 79.7 °F 76.8 °F 29.66 in ESE 2.0 mph 7.0 mph 91 % 0.00 in
11:09 79.5 °F 76.3 °F 29.66 in Calm   6.0 mph 90 % 0.00 in
11:14 79.5 °F 76.3 °F 29.66 in Calm   6.0 mph 90 % 0.00 in
11:19 79.3 °F 76.1 °F 29.67 in SW 3.0 mph 5.0 mph 90 % 0.00 in
11:24 79.3 °F 76.5 °F 29.67 in WNW 1.0 mph 7.0 mph 91 % 0.00 in
11:30 79.3 °F 76.5 °F 29.67 in SW 1.0 mph 7.0 mph 91 % 0.00 in
11:35 79.3 °F 76.1 °F 29.67 in South 3.0 mph 8.0 mph 90 % 0.00 in
11:40 79.3 °F 76.1 °F 29.67 in South 1.0 mph 8.0 mph 90 % 0.00 in
11:45 79.3 °F 76.1 °F 29.67 in SSW 2.0 mph 8.0 mph 90 % 0.00 in
11:50 79.3 °F 76.1 °F 29.67 in SSE 1.0 mph 7.0 mph 90 % 0.00 in
11:55 79.3 °F 76.1 °F 29.67 in SW 1.0 mph 6.0 mph 90 % 0.00 in
12:00 79.3 °F 76.5 °F 29.67 in Calm   5.0 mph 91 % 0.00 in
12:05 79.7 °F 76.8 °F 29.67 in SW 2.0 mph 5.0 mph 91 % 0.00 in
12:10 80.2 °F 77.4 °F 29.67 in WSW 2.0 mph 8.0 mph 91 % 0.00 in
12:15 80.8 °F 77.2 °F 29.67 in Calm   8.0 mph 89 % 0.00 in
12:20 81.0 °F 77.0 °F 29.68 in West 2.0 mph 8.0 mph 88 % 0.00 in
12:25 81.0 °F 77.0 °F 29.68 in South 3.0 mph 8.0 mph 88 % 0.00 in
12:30 81.1 °F 76.8 °F 29.68 in SW 5.0 mph 9.0 mph 87 % 0.00 in
12:35 81.3 °F 77.0 °F 29.68 in NW 6.0 mph 9.0 mph 87 % 0.00 in
12:40 81.9 °F 77.9 °F 29.68 in SSW 5.0 mph 9.0 mph 88 % 0.00 in
12:45 82.4 °F 77.7 °F 29.67 in NW 6.0 mph 9.0 mph 86 % 0.00 in
12:50 82.8 °F 77.7 °F 29.67 in West 3.0 mph 9.0 mph 85 % 0.00 in
12:55 82.9 °F 77.2 °F 29.67 in SSW 1.0 mph 9.0 mph 83 % 0.00 in
13:00 83.5 °F 77.4 °F 29.67 in SSW 1.0 mph 11.0 mph 82 % 0.00 in
13:05 83.8 °F 78.1 °F 29.67 in South 3.0 mph 12.0 mph 83 % 0.00 in
13:10 84.0 °F 77.5 °F 29.67 in SSW 4.0 mph 12.0 mph 81 % 0.00 in
13:15 83.5 °F 77.0 °F 29.68 in NW 3.0 mph 12.0 mph 81 % 0.00 in
13:20 83.1 °F 77.0 °F 29.67 in SSW 4.0 mph 9.0 mph 82 % 0.00 in
13:21 83.1 °F 76.6 °F 29.67 in NNW 1.0 mph 9.0 mph 81 % 0.00 in
13:26 83.3 °F 77.2 °F 29.67 in SW 2.0 mph 9.0 mph 82 % 0.00 in
13:31 83.7 °F 77.2 °F 29.68 in SW 3.0 mph 9.0 mph 81 % 0.00 in
13:36 83.8 °F 77.4 °F 29.68 in WNW 3.0 mph 8.0 mph 81 % 0.00 in
13:41 84.2 °F 77.7 °F 29.68 in WSW 3.0 mph 8.0 mph 81 % 0.00 in
13:46 84.4 °F 77.5 °F 29.68 in West 2.0 mph 8.0 mph 80 % 0.00 in
13:51 84.6 °F 77.4 °F 29.68 in NNW 6.0 mph 8.0 mph 79 % 0.00 in
13:56 84.6 °F 77.4 °F 29.68 in NW 4.0 mph 8.0 mph 79 % 0.00 in
14:01 84.7 °F 77.2 °F 29.68 in SW 3.0 mph 8.0 mph 78 % 0.00 in
14:06 85.5 °F 77.7 °F 29.67 in WSW 2.0 mph 9.0 mph 78 % 0.00 in
14:11 86.2 °F 79.0 °F 29.67 in SSE 2.0 mph 12.0 mph 79 % 0.00 in
14:16 86.7 °F 78.3 °F 29.67 in SW 3.0 mph 13.0 mph 76 % 0.00 in
14:21 87.1 °F 78.3 °F 29.67 in SSW 7.0 mph 13.0 mph 75 % 0.00 in
14:26 87.3 °F 77.9 °F 29.67 in West 3.0 mph 13.0 mph 74 % 0.00 in
14:31 87.3 °F 77.5 °F 29.67 in SW 3.0 mph 12.0 mph 73 % 0.00 in
14:36 86.7 °F 77.0 °F 29.67 in SW 2.0 mph 12.0 mph 73 % 0.00 in
14:41 87.4 °F 78.1 °F 29.67 in WNW 2.0 mph 10.0 mph 74 % 0.00 in
14:46 87.6 °F 77.9 °F 29.67 in WNW 2.0 mph 10.0 mph 73 % 0.00 in
14:51 87.1 °F 77.0 °F 29.66 in South 4.0 mph 9.0 mph 72 % 0.00 in
14:56 86.9 °F 77.5 °F 29.66 in WNW 1.0 mph 9.0 mph 74 % 0.00 in
15:01 86.7 °F 77.4 °F 29.66 in WNW 5.0 mph 9.0 mph 74 % 0.00 in
15:06 86.7 °F 77.0 °F 29.66 in SW 4.0 mph 8.0 mph 73 % 0.00 in
15:11 87.4 °F 78.1 °F 29.66 in West 1.0 mph 7.0 mph 74 % 0.00 in
15:16 88.2 °F 77.9 °F 29.66 in WSW 3.0 mph 8.0 mph 72 % 0.00 in
15:21 88.3 °F 77.7 °F 29.66 in SW 1.0 mph 9.0 mph 71 % 0.00 in
15:22 88.3 °F 78.6 °F 29.66 in SSW 1.0 mph 9.0 mph 73 % 0.00 in
15:27 88.3 °F 77.4 °F 29.65 in South 3.0 mph 9.0 mph 70 % 0.00 in
15:32 88.9 °F 78.6 °F 29.65 in South 2.0 mph 9.0 mph 72 % 0.00 in
15:37 89.8 °F 77.7 °F 29.65 in SSW 1.0 mph 9.0 mph 68 % 0.00 in
15:42 90.0 °F 78.4 °F 29.65 in West 1.0 mph 9.0 mph 69 % 0.00 in
15:47 90.3 °F 78.3 °F 29.65 in NW 3.0 mph 9.0 mph 68 % 0.00 in
15:52 89.8 °F 77.7 °F 29.65 in SSE 1.0 mph 9.0 mph 68 % 0.00 in
15:53 89.8 °F 78.3 °F 29.65 in NNW 3.0 mph 9.0 mph 69 % 0.00 in
15:58 89.8 °F 77.7 °F 29.65 in SSW 2.0 mph 9.0 mph 68 % 0.00 in
16:03 88.9 °F 77.9 °F 29.65 in WSW 4.0 mph 10.0 mph 70 % 0.00 in
16:08 88.0 °F 77.9 °F 29.65 in Calm   10.0 mph 72 % 0.00 in
16:13 87.8 °F 77.7 °F 29.65 in South 1.0 mph 10.0 mph 72 % 0.00 in
16:18 87.4 °F 76.8 °F 29.65 in SSW 3.0 mph 10.0 mph 71 % 0.00 in
16:23 88.0 °F 77.9 °F 29.65 in WSW 3.0 mph 10.0 mph 72 % 0.00 in
16:28 88.9 °F 77.9 °F 29.65 in SW 3.0 mph 10.0 mph 70 % 0.00 in
16:33 89.1 °F 77.5 °F 29.65 in SW 3.0 mph 9.0 mph 69 % 0.00 in
16:38 88.9 °F 77.4 °F 29.65 in SSW 1.0 mph 8.0 mph 69 % 0.00 in
16:43 88.5 °F 77.5 °F 29.65 in South 2.0 mph 8.0 mph 70 % 0.00 in
16:48 88.3 °F 77.7 °F 29.65 in SW 5.0 mph 8.0 mph 71 % 0.00 in
16:53 88.3 °F 77.7 °F 29.65 in South 9.0 mph 9.0 mph 71 % 0.00 in
16:58 88.5 °F 78.3 °F 29.65 in SSW 4.0 mph 10.0 mph 72 % 0.00 in
17:03 88.9 °F 78.6 °F 29.65 in SW 6.0 mph 10.0 mph 72 % 0.00 in
17:08 88.9 °F 77.9 °F 29.65 in SW 3.0 mph 10.0 mph 70 % 0.00 in
17:13 88.5 °F 77.0 °F 29.65 in South 8.0 mph 8.0 mph 69 % 0.00 in
17:18 88.2 °F 77.5 °F 29.65 in SW 2.0 mph 12.0 mph 71 % 0.00 in
17:23 88.0 °F 77.4 °F 29.65 in SSW 1.0 mph 12.0 mph 71 % 0.00 in
17:28 87.8 °F 77.7 °F 29.65 in SSW 4.0 mph 12.0 mph 72 % 0.00 in
17:33 87.4 °F 76.8 °F 29.65 in South 3.0 mph 7.0 mph 71 % 0.00 in
17:38 87.4 °F 77.7 °F 29.65 in South 4.0 mph 9.0 mph 73 % 0.00 in
17:43 87.4 °F 77.7 °F 29.65 in South 1.0 mph 9.0 mph 73 % 0.00 in
17:48 87.4 °F 77.4 °F 29.65 in SSW 2.0 mph 9.0 mph 72 % 0.00 in
17:53 87.6 °F 77.9 °F 29.65 in SW 3.0 mph 7.0 mph 73 % 0.00 in
17:58 87.6 °F 77.5 °F 29.65 in Calm   7.0 mph 72 % 0.00 in
18:03 88.0 °F 77.9 °F 29.65 in South 4.0 mph 5.0 mph 72 % 0.00 in
18:08 88.0 °F 77.9 °F 29.65 in South 6.0 mph 7.0 mph 72 % 0.00 in
18:13 87.4 °F 77.4 °F 29.65 in SSE 3.0 mph 9.0 mph 72 % 0.00 in
18:18 87.4 °F 78.1 °F 29.65 in SSW 3.0 mph 9.0 mph 74 % 0.00 in
18:23 87.4 °F 77.4 °F 29.65 in SSW 2.0 mph 9.0 mph 72 % 0.00 in
18:28 87.4 °F 77.4 °F 29.65 in SSE 5.0 mph 8.0 mph 72 % 0.00 in
18:33 87.1 °F 77.0 °F 29.65 in SSW 3.0 mph 9.0 mph 72 % 0.00 in
18:38 87.1 °F 77.4 °F 29.65 in South 3.0 mph 9.0 mph 73 % 0.00 in
18:43 87.4 °F 77.4 °F 29.65 in SSW 3.0 mph 9.0 mph 72 % 0.00 in
18:48 87.6 °F 77.0 °F 29.65 in SSW 2.0 mph 8.0 mph 71 % 0.00 in
18:53 87.6 °F 76.6 °F 29.65 in SSW 4.0 mph 8.0 mph 70 % 0.00 in
18:58 87.6 °F 76.6 °F 29.65 in SSW 5.0 mph 8.0 mph 70 % 0.00 in
19:03 87.4 °F 75.9 °F 29.65 in SSE 4.0 mph 8.0 mph 69 % 0.00 in
19:08 87.1 °F 76.1 °F 29.65 in SSW 1.0 mph 6.0 mph 70 % 0.00 in
19:13 87.1 °F 76.1 °F 29.65 in South 3.0 mph 6.0 mph 70 % 0.00 in
19:18 87.1 °F 76.1 °F 29.65 in SSE 4.0 mph 6.0 mph 70 % 0.00 in
19:23 86.9 °F 75.9 °F 29.65 in South 2.0 mph 6.0 mph 70 % 0.00 in
19:28 86.7 °F 76.1 °F 29.66 in Calm   4.0 mph 71 % 0.00 in
19:33 86.5 °F 75.9 °F 29.66 in South 1.0 mph 4.0 mph 71 % 0.00 in
19:38 86.5 °F 75.9 °F 29.66 in South 1.0 mph 4.0 mph 71 % 0.00 in
19:43 86.5 °F 76.5 °F 29.66 in SSE 2.0 mph 4.0 mph 72 % 0.00 in
19:48 86.5 °F 75.9 °F 29.67 in SSE 2.0 mph 3.0 mph 71 % 0.00 in
19:53 86.4 °F 76.3 °F 29.66 in South 2.0 mph 4.0 mph 72 % 0.00 in
19:58 86.4 °F 75.9 °F 29.67 in South 2.0 mph 4.0 mph 71 % 0.00 in
20:03 86.2 °F 76.1 °F 29.67 in SE 2.0 mph 4.0 mph 72 % 0.00 in
20:08 86.2 °F 76.1 °F 29.67 in South 3.0 mph 7.0 mph 72 % 0.00 in
20:13 86.2 °F 76.1 °F 29.67 in South 6.0 mph 7.0 mph 72 % 0.00 in
20:18 86.2 °F 76.1 °F 29.67 in SE 3.0 mph 8.0 mph 72 % 0.00 in
20:23 86.2 °F 76.1 °F 29.67 in SSW 4.0 mph 8.0 mph 72 % 0.00 in
20:28 86.2 °F 76.5 °F 29.68 in SSE 4.0 mph 8.0 mph 73 % 0.00 in
20:33 86.2 °F 76.5 °F 29.68 in SSE 3.0 mph 6.0 mph 73 % 0.00 in
20:38 86.2 °F 76.5 °F 29.68 in SE 8.0 mph 8.0 mph 73 % 0.00 in
20:43 86.2 °F 76.5 °F 29.67 in South 3.0 mph 8.0 mph 73 % 0.00 in
20:48 86.0 °F 76.3 °F 29.68 in SE 2.0 mph 8.0 mph 73 % 0.00 in
20:53 85.8 °F 76.6 °F 29.68 in South 2.0 mph 8.0 mph 74 % 0.00 in
20:58 85.6 °F 76.5 °F 29.68 in SSW 2.0 mph 8.0 mph 74 % 0.00 in
21:03 85.6 °F 76.5 °F 29.68 in SSW 4.0 mph 8.0 mph 74 % 0.00 in
21:08 85.5 °F 76.6 °F 29.68 in SSE 4.0 mph 8.0 mph 75 % 0.00 in
21:13 85.3 °F 76.5 °F 29.68 in South 3.0 mph 7.0 mph 75 % 0.00 in
21:18 85.1 °F 76.6 °F 29.68 in South 5.0 mph 7.0 mph 76 % 0.00 in
21:24 84.9 °F 76.5 °F 29.68 in SSW 2.0 mph 9.0 mph 76 % 0.00 in
21:29 84.7 °F 76.6 °F 29.68 in South 3.0 mph 9.0 mph 77 % 0.00 in
21:34 84.6 °F 76.5 °F 29.68 in South 3.0 mph 9.0 mph 77 % 0.00 in
21:39 84.6 °F 77.0 °F 29.68 in SE 4.0 mph 6.0 mph 78 % 0.00 in
21:44 84.4 °F 77.2 °F 29.69 in South 3.0 mph 9.0 mph 79 % 0.00 in
21:49 84.4 °F 77.5 °F 29.69 in SSW 4.0 mph 9.0 mph 80 % 0.00 in
21:54 84.2 °F 77.7 °F 29.69 in South 5.0 mph 9.0 mph 81 % 0.00 in
21:59 84.0 °F 77.5 °F 29.69 in SSW 2.0 mph 9.0 mph 81 % 0.00 in
22:04 84.0 °F 77.9 °F 29.70 in SSW 4.0 mph 9.0 mph 82 % 0.00 in
22:09 83.8 °F 77.7 °F 29.70 in SE 8.0 mph 10.0 mph 82 % 0.00 in
22:14 83.8 °F 78.1 °F 29.70 in South 7.0 mph 10.0 mph 83 % 0.00 in
22:19 83.8 °F 78.1 °F 29.70 in SSE 5.0 mph 10.0 mph 83 % 0.00 in
22:24 83.7 °F 77.9 °F 29.70 in South 5.0 mph 9.0 mph 83 % 0.00 in
22:29 83.7 °F 77.9 °F 29.70 in SSE 5.0 mph 8.0 mph 83 % 0.00 in
22:34 83.5 °F 78.1 °F 29.70 in SSE 7.0 mph 8.0 mph 84 % 0.00 in
22:39 83.5 °F 78.1 °F 29.70 in SSE 4.0 mph 9.0 mph 84 % 0.00 in
22:44 83.5 °F 78.1 °F 29.70 in ESE 8.0 mph 10.0 mph 84 % 0.00 in
22:49 83.3 °F 77.9 °F 29.71 in SSE 6.0 mph 10.0 mph 84 % 0.00 in
22:54 83.1 °F 77.7 °F 29.71 in South 5.0 mph 11.0 mph 84 % 0.00 in
22:59 83.1 °F 78.1 °F 29.72 in South 4.0 mph 11.0 mph 85 % 0.00 in
23:04 83.1 °F 78.1 °F 29.72 in South 4.0 mph 11.0 mph 85 % 0.00 in
23:09 82.9 °F 77.9 °F 29.72 in SSE 3.0 mph 8.0 mph 85 % 0.00 in
23:14 82.9 °F 78.3 °F 29.72 in SSE 5.0 mph 8.0 mph 86 % 0.00 in
23:19 82.9 °F 78.3 °F 29.72 in South 4.0 mph 8.0 mph 86 % 0.00 in
23:25 82.9 °F 78.3 °F 29.72 in SSE 4.0 mph 8.0 mph 86 % 0.00 in
23:30 82.8 °F 78.4 °F 29.72 in South 4.0 mph 8.0 mph 87 % 0.00 in
23:35 82.8 °F 78.4 °F 29.72 in SE 5.0 mph 11.0 mph 87 % 0.00 in
23:40 82.8 °F 78.4 °F 29.72 in SSW 7.0 mph 12.0 mph 87 % 0.00 in
23:45 82.6 °F 78.3 °F 29.72 in SE 4.0 mph 12.0 mph 87 % 0.00 in
23:50 82.6 °F 78.6 °F 29.73 in SE 8.0 mph 13.0 mph 88 % 0.00 in
23:55 82.4 °F 78.4 °F 29.73 in SSW 4.0 mph 13.0 mph 88 % 0.00 in
Spring, Texas: Villages of Bridgestone
Compliments of Weather Underground - 2.75 mb

Script developed by  Jim McMurry - jmcmurry@mwt.net Adapted for the template by  Wim van der Kuil - Leuven-Template.eu

You find our weather info also at:

UK Metoffice

WeatherCloud

Weather Underground

Mid-South Weather Network

AWEKAS

Citizen Weather Observer Program (CWOP)

HAMweather, WeatherForYou, PWS Weather

Equipment we use:

Weather-station
Davis Vantage Vue

Weather-program
Meteohub

Weather-server
Debian 7.9 x86 (Guest)

Provider
DreamHost

Davis Vantage Vue

Meteohub

Debian 7.9 x86 (Guest)

DreamHost